Time;durP1;ratioP1;P1;durP2;ratioP2;P2;SDS_P1;SDS_P2;PMS_P1;PMS_P2;Temp;Humidity;BMP_temperature;BMP_pressure;BME280_temperature;BME280_humidity;BME280_pressure;Samples;Min_cycle;Max_cycle;Signal;HPM_P1;HPM_P2
2021/08/18 00:01:09;;;;;;;16.58;8.68;;;;;;;19.48;92.19;94735.00;5066448;28;20050;-73
2021/08/18 00:03:36;;;;;;;18.25;9.07;;;;;;;19.35;93.02;94731.25;5066704;28;20119;-73
2021/08/18 00:06:03;;;;;;;13.70;9.70;;;;;;;19.20;94.53;94732.28;5066314;28;20045;-74
2021/08/18 00:08:29;;;;;;;17.83;9.15;;;;;;;19.07;95.34;94719.81;5065375;28;20055;-73
2021/08/18 00:10:56;;;;;;;17.88;9.02;;;;;;;18.90;96.17;94705.25;5066654;28;20052;-73
2021/08/18 00:13:24;;;;;;;17.13;10.05;;;;;;;18.87;96.74;94708.50;5066276;28;20048;-73
2021/08/18 00:15:51;;;;;;;16.73;9.40;;;;;;;18.71;97.58;94692.06;5065023;28;20037;-73
2021/08/18 00:18:18;;;;;;;15.30;8.95;;;;;;;18.68;98.71;94687.34;5066423;28;20040;-74
2021/08/18 00:20:45;;;;;;;18.48;9.43;;;;;;;18.58;99.62;94686.69;5066376;28;20044;-74
2021/08/18 00:23:12;;;;;;;18.88;9.73;;;;;;;18.59;100.00;94672.47;5066446;28;20036;-74
2021/08/18 00:25:39;;;;;;;18.48;10.30;;;;;;;18.58;100.00;94673.50;5064897;28;20036;-74
2021/08/18 00:28:06;;;;;;;18.63;10.75;;;;;;;18.52;100.00;94673.56;5064804;28;20040;-74
2021/08/18 00:30:33;;;;;;;18.50;9.93;;;;;;;18.50;100.00;94675.72;5065272;28;20048;-74
2021/08/18 00:33:00;;;;;;;19.88;9.95;;;;;;;18.56;100.00;94683.56;5065047;28;20090;-74
2021/08/18 00:35:30;;;;;;;16.35;10.82;;;;;;;18.58;100.00;94697.25;5065777;28;20540;-73
2021/08/18 00:37:57;;;;;;;18.98;10.65;;;;;;;18.61;100.00;94696.69;5066269;28;20036;-73
2021/08/18 00:40:24;;;;;;;18.63;9.00;;;;;;;18.45;100.00;94699.50;5066209;28;20413;-74
2021/08/18 00:42:51;;;;;;;13.85;8.35;;;;;;;18.43;98.95;94696.38;5065305;28;20058;-73
2021/08/18 00:45:19;;;;;;;10.80;7.07;;;;;;;18.41;97.51;94706.44;5065828;28;20048;-74
2021/08/18 00:47:53;;;;;;;16.95;7.90;;;;;;;18.44;97.19;94703.22;5065648;28;20074;-74
2021/08/18 00:50:23;;;;;;;20.70;7.47;;;;;;;18.43;96.53;94717.47;5065732;28;20040;-73
2021/08/18 00:52:51;;;;;;;12.07;6.90;;;;;;;18.42;95.76;94720.38;5066031;28;20142;-74
2021/08/18 00:55:22;;;;;;;18.42;8.07;;;;;;;18.29;95.18;94732.41;5066039;28;20393;-73
2021/08/18 00:57:50;;;;;;;17.63;6.95;;;;;;;18.34;95.27;94729.72;5065925;28;20036;-74
2021/08/18 01:00:19;;;;;;;15.48;7.07;;;;;;;18.41;94.63;94748.63;5065598;28;20119;-74
2021/08/18 01:02:47;;;;;;;17.33;7.13;;;;;;;18.43;94.39;94757.03;5063740;28;22213;-73
2021/08/18 01:05:18;;;;;;;10.50;6.25;;;;;;;18.42;94.02;94758.09;5065638;28;20074;-73
2021/08/18 01:07:50;;;;;;;18.70;7.38;;;;;;;18.36;93.35;94753.94;5065488;28;20102;-74
2021/08/18 01:10:23;;;;;;;15.15;6.50;;;;;;;18.33;92.95;94741.34;5064615;28;20050;-74
2021/08/18 01:12:51;;;;;;;17.60;6.72;;;;;;;18.33;93.54;94749.25;5065681;28;20036;-74
2021/08/18 01:15:20;;;;;;;22.52;6.50;;;;;;;18.28;93.28;94751.94;5064525;28;20049;-73
2021/08/18 01:17:50;;;;;;;11.43;6.05;;;;;;;18.29;93.13;94753.50;5065688;28;21030;-73
2021/08/18 01:20:20;;;;;;;12.57;6.40;;;;;;;18.19;92.72;94758.91;5065251;28;20048;-74
2021/08/18 01:22:48;;;;;;;10.32;6.53;;;;;;;18.21;93.51;94762.03;5065442;28;20032;-74
2021/08/18 01:25:16;;;;;;;17.83;5.85;;;;;;;18.21;93.36;94756.75;5065257;28;20040;-74
2021/08/18 01:27:48;;;;;;;13.38;6.22;;;;;;;18.22;92.86;94758.31;5065100;28;20040;-73
2021/08/18 01:30:18;;;;;;;16.10;6.93;;;;;;;18.35;93.42;94765.56;5065308;28;20040;-74
2021/08/18 01:32:49;;;;;;;14.20;6.47;;;;;;;18.42;94.41;94773.94;5064173;28;20052;-74
2021/08/18 01:35:30;;;;;;;20.17;6.50;;;;;;;18.47;93.28;94781.75;5065351;28;20463;-74
2021/08/18 01:37:57;;;;;;;13.43;6.65;;;;;;;18.56;92.83;94784.56;5064051;28;20051;-74
2021/08/18 01:40:24;;;;;;;15.63;7.60;;;;;;;18.61;92.78;94786.38;5065322;28;20041;-74
2021/08/18 01:42:52;;;;;;;18.20;6.72;;;;;;;18.67;92.57;94779.94;5065127;28;20040;-74
2021/08/18 01:45:23;;;;;;;12.93;7.38;;;;;;;18.60;92.90;94774.22;5064117;28;20080;-74
2021/08/18 01:47:51;;;;;;;17.20;7.03;;;;;;;18.69;92.80;94793.63;5064857;28;20048;-73
2021/08/18 01:50:19;;;;;;;13.73;6.63;;;;;;;18.68;92.79;94786.81;5065265;28;20045;-74
2021/08/18 01:52:51;;;;;;;13.07;6.50;;;;;;;18.56;92.11;94776.66;5063866;28;20047;-73
2021/08/18 01:55:20;;;;;;;16.60;6.30;;;;;;;18.59;91.63;94776.09;5065218;28;20040;-74
2021/08/18 01:57:47;;;;;;;12.50;5.55;;;;;;;18.63;91.46;94785.00;5063719;28;20052;-74
2021/08/18 02:00:15;;;;;;;10.05;6.05;;;;;;;18.48;91.10;94772.78;5064970;28;20517;-73
2021/08/18 02:02:43;;;;;;;8.07;6.38;;;;;;;18.58;91.41;94781.66;5065200;28;20059;-74
2021/08/18 02:05:11;;;;;;;16.08;7.13;;;;;;;18.54;91.51;94786.69;5064691;28;20160;-74
2021/08/18 02:07:38;;;;;;;13.10;6.05;;;;;;;18.53;92.52;94785.91;5064754;28;20037;-73
2021/08/18 02:10:16;;;;;;;16.52;6.80;;;;;;;18.53;92.75;94785.91;5064789;28;20055;-73
2021/08/18 02:12:43;;;;;;;14.70;7.43;;;;;;;18.39;92.42;94779.75;5064569;28;20185;-73
2021/08/18 02:15:17;;;;;;;17.52;7.55;;;;;;;18.29;93.21;94769.31;5064469;28;20049;-74
2021/08/18 02:17:45;;;;;;;18.52;7.25;;;;;;;18.19;92.74;94769.44;5064453;28;20053;-74
2021/08/18 02:20:15;;;;;;;18.45;7.38;;;;;;;18.26;92.45;94785.72;5064977;28;20429;-74
2021/08/18 02:22:42;;;;;;;21.33;7.35;;;;;;;18.20;92.46;94778.91;5063553;28;20493;-74
2021/08/18 02:25:09;;;;;;;14.52;6.40;;;;;;;18.07;92.51;94767.97;5064490;28;20044;-74
2021/08/18 02:27:37;;;;;;;16.00;7.00;;;;;;;18.08;92.61;94780.09;5064830;28;20049;-73
2021/08/18 02:30:04;;;;;;;12.25;7.65;;;;;;;17.89;92.79;94779.22;5064468;28;20044;-74
2021/08/18 02:32:31;;;;;;;18.58;7.00;;;;;;;17.94;93.24;94785.22;5067313;28;20051;-72
2021/08/18 02:34:58;;;;;;;12.20;6.30;;;;;;;17.92;92.82;94786.56;5068333;28;20047;-74
2021/08/18 02:37:25;;;;;;;15.65;6.22;;;;;;;17.82;93.00;94786.63;5068385;28;20045;-74
2021/08/18 02:39:52;;;;;;;12.00;6.72;;;;;;;17.65;93.19;94782.56;5068175;28;20138;-73
2021/08/18 02:42:18;;;;;;;10.48;6.47;;;;;;;17.47;92.96;94775.34;5068307;28;20040;-73
2021/08/18 02:44:47;;;;;;;13.77;6.43;;;;;;;17.57;93.17;94783.13;5068055;28;20048;-74
2021/08/18 02:47:14;;;;;;;11.68;6.22;;;;;;;17.36;92.75;94758.84;5066108;28;20032;-73
2021/08/18 02:49:41;;;;;;;14.05;6.70;;;;;;;17.46;92.79;94776.38;5067905;28;20063;-74
2021/08/18 02:52:08;;;;;;;14.88;6.15;;;;;;;17.43;93.46;94790.09;5068096;28;20037;-74
2021/08/18 02:54:35;;;;;;;10.93;6.32;;;;;;;17.39;93.47;94780.13;5068254;28;20051;-74
2021/08/18 02:57:02;;;;;;;14.63;7.35;;;;;;;17.28;93.32;94772.56;5068304;28;20647;-74
2021/08/18 02:59:28;;;;;;;7.68;6.07;;;;;;;17.41;94.04;94792.22;5067398;28;20053;-74
2021/08/18 03:01:55;;;;;;;11.48;7.28;;;;;;;17.33;93.95;94791.75;5067822;28;20535;-73
2021/08/18 03:04:22;;;;;;;16.30;7.07;;;;;;;17.28;93.62;94789.13;5067964;28;20045;-74
2021/08/18 03:06:49;;;;;;;17.05;6.55;;;;;;;17.21;94.04;94788.66;5067649;28;20106;-74
2021/08/18 03:09:16;;;;;;;10.90;6.78;;;;;;;17.12;94.48;94785.03;5068036;28;20044;-74
2021/08/18 03:11:43;;;;;;;16.13;7.30;;;;;;;17.13;94.35;94791.88;5067879;28;20119;-73
2021/08/18 03:14:09;;;;;;;11.57;6.22;;;;;;;16.96;94.78;94782.50;5067873;28;20040;-74
2021/08/18 03:16:36;;;;;;;11.98;7.13;;;;;;;16.93;94.60;94788.31;5049136;28;20036;-74
2021/08/18 03:19:03;;;;;;;12.93;7.07;;;;;;;16.88;94.97;94785.69;5066739;28;20044;-74
2021/08/18 03:21:30;;;;;;;11.15;7.00;;;;;;;16.87;95.28;94793.84;5066488;28;20101;-73
2021/08/18 03:23:57;;;;;;;12.15;6.80;;;;;;;16.71;95.32;94780.78;5067863;28;20040;-74
2021/08/18 03:26:24;;;;;;;20.83;8.05;;;;;;;16.57;96.37;94806.84;5067858;28;20043;-74
2021/08/18 03:28:50;;;;;;;11.65;6.50;;;;;;;16.54;96.45;94802.13;5067721;28;20051;-73
2021/08/18 03:31:17;;;;;;;18.48;7.32;;;;;;;16.48;96.30;94803.19;5067516;28;20047;-74
2021/08/18 03:33:44;;;;;;;13.05;7.35;;;;;;;16.42;96.59;94804.25;5067353;28;20044;-74
2021/08/18 03:36:11;;;;;;;15.60;7.72;;;;;;;16.44;96.72;94796.91;5067357;28;20043;-74
2021/08/18 03:38:38;;;;;;;16.00;7.63;;;;;;;16.47;96.60;94801.63;5067440;28;20037;-74
2021/08/18 03:41:05;;;;;;;13.73;7.10;;;;;;;16.37;96.67;94801.66;5067489;28;20422;-75
2021/08/18 03:43:32;;;;;;;10.73;6.95;;;;;;;16.37;96.63;94818.22;5067056;28;20046;-73
2021/08/18 03:45:59;;;;;;;13.43;7.20;;;;;;;16.32;97.22;94814.81;5066027;28;20049;-75
2021/08/18 03:48:26;;;;;;;17.40;8.13;;;;;;;16.22;97.45;94813.78;5067280;28;20409;-74
2021/08/18 03:50:52;;;;;;;15.68;8.25;;;;;;;16.27;97.52;94812.19;5067216;28;20055;-73
2021/08/18 03:53:19;;;;;;;13.23;7.70;;;;;;;16.27;97.40;94833.22;5067217;28;20036;-74
2021/08/18 03:55:46;;;;;;;13.50;7.75;;;;;;;16.33;97.53;94826.88;5066855;28;20040;-74
2021/08/18 03:58:13;;;;;;;11.57;6.95;;;;;;;16.35;98.17;94832.66;5065620;28;20163;-73
2021/08/18 04:00:39;;;;;;;14.57;7.35;;;;;;;16.38;97.79;94832.13;5065726;28;20058;-74
2021/08/18 04:03:07;;;;;;;10.02;7.00;;;;;;;16.39;97.37;94833.72;5065531;28;20569;-74
2021/08/18 04:05:34;;;;;;;15.55;7.85;;;;;;;16.29;97.06;94826.63;5066375;28;20557;-73
2021/08/18 04:08:01;;;;;;;15.25;6.97;;;;;;;16.28;96.91;94832.16;5067040;28;20041;-74
2021/08/18 04:10:28;;;;;;;12.05;6.72;;;;;;;16.22;97.03;94826.94;5066133;28;20048;-74
2021/08/18 04:12:59;;;;;;;14.75;7.22;;;;;;;16.08;97.22;94835.59;5066847;28;20036;-74
2021/08/18 04:15:44;;;;;;;15.02;7.93;;;;;;;16.07;97.54;94829.56;5066674;28;20040;-74
2021/08/18 04:18:11;;;;;;;10.80;7.70;;;;;;;15.98;98.23;94833.78;5066536;28;20509;-73
2021/08/18 04:20:38;;;;;;;23.70;8.10;;;;;;;15.92;99.25;94842.72;5066023;28;20036;-74
2021/08/18 04:23:05;;;;;;;15.00;8.20;;;;;;;15.86;100.00;94845.38;5065914;28;20044;-74
2021/08/18 04:25:33;;;;;;;23.92;8.63;;;;;;;15.88;100.00;94846.91;5065995;28;20037;-74
2021/08/18 04:28:00;;;;;;;11.23;7.50;;;;;;;15.97;100.00;94845.34;5066187;28;20053;-74
2021/08/18 04:30:26;;;;;;;12.95;8.18;;;;;;;15.95;99.81;94853.47;5065947;28;20048;-74
2021/08/18 04:32:53;;;;;;;15.02;8.38;;;;;;;16.01;100.00;94854.28;5048645;28;20043;-74
2021/08/18 04:35:21;;;;;;;19.88;7.68;;;;;;;16.01;99.29;94849.03;5066323;28;20060;-74
2021/08/18 04:37:48;;;;;;;16.90;7.85;;;;;;;16.14;98.58;94856.38;5065001;28;20051;-72
2021/08/18 04:40:15;;;;;;;11.27;7.03;;;;;;;16.14;97.87;94859.00;5064880;28;20113;-74
2021/08/18 04:42:45;;;;;;;10.90;7.70;;;;;;;16.21;97.56;94862.13;5065943;28;20048;-74
2021/08/18 04:45:13;;;;;;;12.60;7.07;;;;;;;16.17;97.39;94861.09;5065581;28;20044;-73
2021/08/18 04:47:41;;;;;;;12.88;6.53;;;;;;;16.02;97.68;94854.00;5065762;28;20040;-73
2021/08/18 04:50:10;;;;;;;16.70;7.70;;;;;;;16.14;97.62;94864.25;5065508;28;20063;-74
2021/08/18 04:52:37;;;;;;;18.20;7.13;;;;;;;16.20;96.55;94863.16;5065383;28;20040;-74
2021/08/18 04:55:04;;;;;;;14.32;6.18;;;;;;;16.09;95.81;94852.97;5065255;28;20048;-74
2021/08/18 04:57:31;;;;;;;11.70;5.97;;;;;;;16.07;95.80;94858.47;5065580;28;20490;-74
2021/08/18 04:59:58;;;;;;;8.85;5.50;;;;;;;16.23;95.57;94865.28;5065548;28;20045;-74
2021/08/18 05:02:26;;;;;;;17.90;6.28;;;;;;;16.21;95.09;94872.66;5065795;28;20045;-74
2021/08/18 05:04:53;;;;;;;13.32;6.72;;;;;;;16.25;94.91;94865.78;5065333;28;20048;-74
2021/08/18 05:07:20;;;;;;;13.60;6.13;;;;;;;16.27;94.61;94864.75;5064963;28;20094;-74
2021/08/18 05:09:47;;;;;;;11.38;6.35;;;;;;;16.29;93.71;94862.66;5065411;28;20424;-74
2021/08/18 05:12:14;;;;;;;11.05;5.90;;;;;;;16.25;93.89;94847.41;5065117;28;20037;-75
2021/08/18 05:14:40;;;;;;;14.07;6.32;;;;;;;16.37;93.73;94865.53;5065100;28;20512;-74
2021/08/18 05:17:07;;;;;;;9.57;6.32;;;;;;;16.40;93.48;94869.44;5065149;28;20047;-75
2021/08/18 05:19:34;;;;;;;13.85;6.18;;;;;;;16.49;93.75;94869.69;5063699;28;20484;-74
2021/08/18 05:22:01;;;;;;;13.65;6.03;;;;;;;16.59;93.38;94873.09;5030658;28;20758;-74
2021/08/18 05:24:28;;;;;;;10.50;5.75;;;;;;;16.66;92.55;94874.66;5064422;28;20115;-75
2021/08/18 05:26:55;;;;;;;14.70;6.43;;;;;;;16.70;91.18;94873.06;5064652;28;20059;-75
2021/08/18 05:29:21;;;;;;;10.68;6.07;;;;;;;16.78;91.18;94880.38;5065578;28;20044;-74
2021/08/18 05:31:48;;;;;;;10.40;5.43;;;;;;;16.72;89.77;94870.97;5065140;28;20115;-74
2021/08/18 05:34:15;;;;;;;12.63;5.03;;;;;;;16.80;89.37;94867.78;5046976;28;20066;-74
2021/08/18 05:36:42;;;;;;;32.65;8.07;;;;;;;16.90;89.78;94872.22;5065366;28;20048;-74
2021/08/18 05:39:09;;;;;;;23.25;7.10;;;;;;;16.90;89.17;94873.00;5065279;28;20040;-74
2021/08/18 05:41:36;;;;;;;10.07;5.18;;;;;;;16.92;89.00;94881.41;5065077;28;20037;-72
2021/08/18 05:44:03;;;;;;;10.90;5.75;;;;;;;16.99;88.38;94876.66;5065253;28;20063;-74
2021/08/18 05:46:29;;;;;;;12.73;5.93;;;;;;;17.08;88.88;94870.84;5063764;28;20050;-74
2021/08/18 05:48:56;;;;;;;13.73;5.95;;;;;;;17.23;89.57;94875.25;5065008;28;20048;-73
2021/08/18 05:51:23;;;;;;;8.50;6.25;;;;;;;17.32;88.06;94879.69;5063581;28;20055;-74
2021/08/18 05:53:50;;;;;;;10.25;6.35;;;;;;;17.44;87.36;94878.56;5064091;28;20408;-75
2021/08/18 05:56:18;;;;;;;9.27;4.90;;;;;;;17.37;87.19;94870.94;5065168;28;20527;-75
2021/08/18 05:58:45;;;;;;;12.30;5.63;;;;;;;17.48;87.49;94876.94;5065133;28;20068;-74
2021/08/18 06:01:12;;;;;;;12.13;5.32;;;;;;;17.63;87.24;94878.69;5064698;28;20481;-74
2021/08/18 06:03:38;;;;;;;9.40;5.70;;;;;;;17.73;86.98;94874.13;5064776;28;20811;-73
2021/08/18 06:06:05;;;;;;;7.10;4.70;;;;;;;17.75;84.92;94872.03;5065604;28;20051;-73
2021/08/18 06:08:32;;;;;;;10.23;4.65;;;;;;;17.78;84.32;94876.72;5069190;28;20425;-74
2021/08/18 06:10:59;;;;;;;8.43;4.55;;;;;;;17.98;83.94;94875.03;5068288;28;20040;-73
2021/08/18 06:13:26;;;;;;;7.72;4.75;;;;;;;18.07;83.05;94878.66;5073138;28;20463;-74
2021/08/18 06:15:53;;;;;;;6.82;3.63;;;;;;;18.09;81.72;94876.50;5068514;28;20509;-74
2021/08/18 06:18:20;;;;;;;7.53;4.35;;;;;;;18.10;80.92;94867.56;5068712;28;20063;-73
2021/08/18 06:20:46;;;;;;;11.82;4.28;;;;;;;18.28;80.55;94874.00;5067605;28;20048;-73
2021/08/18 06:23:17;;;;;;;12.90;3.80;;;;;;;18.37;79.14;94882.09;5067446;28;20052;-72
2021/08/18 06:25:44;;;;;;;7.40;4.28;;;;;;;18.32;78.75;94868.94;5068133;28;20044;-73
2021/08/18 06:28:15;;;;;;;12.35;4.93;;;;;;;18.46;79.69;94875.13;5068479;28;20047;-73
2021/08/18 06:30:43;;;;;;;5.85;3.67;;;;;;;18.39;76.86;94858.84;5066929;28;20110;-72
2021/08/18 06:33:10;;;;;;;6.35;3.60;;;;;;;18.59;77.43;94875.53;5068477;28;20045;-73
2021/08/18 06:35:37;;;;;;;5.65;3.40;;;;;;;18.75;78.60;94871.66;5068041;28;20059;-73
2021/08/18 06:38:04;;;;;;;6.28;3.97;;;;;;;18.86;77.08;94873.16;5068171;28;20044;-73
2021/08/18 06:40:31;;;;;;;10.05;3.60;;;;;;;19.05;77.76;94867.91;5068094;28;20416;-73
2021/08/18 06:42:57;;;;;;;10.63;3.35;;;;;;;19.20;76.98;94869.56;5068203;28;20048;-74
2021/08/18 06:45:24;;;;;;;9.43;3.47;;;;;;;19.28;76.00;94863.66;5067315;28;20060;-73
2021/08/18 06:47:51;;;;;;;11.55;3.42;;;;;;;19.23;72.26;94861.09;5067810;28;20039;-74
2021/08/18 06:50:18;;;;;;;7.00;3.70;;;;;;;19.24;72.77;94875.06;5067677;28;20066;-74
2021/08/18 06:52:45;;;;;;;10.13;4.32;;;;;;;19.23;72.38;94874.28;5067523;28;20059;-74
2021/08/18 06:55:12;;;;;;;7.63;4.10;;;;;;;19.31;72.89;94861.53;5068821;28;20555;-74
2021/08/18 06:57:39;;;;;;;8.00;4.45;;;;;;;19.46;72.16;94874.50;5067809;28;20433;-74
2021/08/18 07:00:08;;;;;;;6.90;3.42;;;;;;;19.58;73.10;94877.50;5066752;28;21245;-75
2021/08/18 07:02:46;;;;;;;7.75;4.18;;;;;;;19.56;71.69;94863.78;5066307;28;20048;-74
2021/08/18 07:05:15;;;;;;;6.95;3.60;;;;;;;19.72;72.91;94860.94;5066996;28;20044;-74
2021/08/18 07:07:42;;;;;;;9.25;4.00;;;;;;;19.88;70.41;94862.31;5049218;28;20032;-74
2021/08/18 07:10:10;;;;;;;10.20;4.00;;;;;;;19.98;69.71;94858.69;5067470;28;20040;-74
2021/08/18 07:12:37;;;;;;;10.75;3.80;;;;;;;20.05;69.40;94872.31;5067043;28;20060;-74
2021/08/18 07:15:06;;;;;;;7.05;4.10;;;;;;;20.07;68.80;94861.47;5049569;28;20052;-75
2021/08/18 07:17:33;;;;;;;11.65;3.22;;;;;;;20.21;69.96;94867.56;5064938;28;20036;-74
2021/08/18 07:20:00;;;;;;;12.15;4.32;;;;;;;20.22;69.45;94861.19;5065420;28;20040;-74
2021/08/18 07:22:27;;;;;;;10.93;4.35;;;;;;;20.34;68.54;94866.03;5066490;28;20055;-74
2021/08/18 07:24:55;;;;;;;11.27;4.20;;;;;;;20.50;70.93;94858.59;5065514;28;20765;-73
2021/08/18 07:27:22;;;;;;;7.07;3.88;;;;;;;20.70;68.44;94868.84;5066520;28;20055;-73
2021/08/18 07:29:49;;;;;;;10.90;4.65;;;;;;;20.87;68.20;94862.16;5066520;28;20036;-73
2021/08/18 07:32:16;;;;;;;8.05;3.70;;;;;;;21.00;66.75;94856.09;5066464;28;20773;-72
2021/08/18 07:34:42;;;;;;;6.78;4.38;;;;;;;21.29;67.14;94858.38;5068050;28;20049;-75
2021/08/18 07:37:09;;;;;;;8.15;4.32;;;;;;;21.48;66.69;94855.63;5067284;28;20048;-74
2021/08/18 07:39:36;;;;;;;8.40;3.95;;;;;;;21.56;65.85;94862.84;5068359;28;20059;-75
2021/08/18 07:42:03;;;;;;;8.27;3.65;;;;;;;21.65;66.32;94852.34;5066784;28;20040;-75
2021/08/18 07:44:31;;;;;;;8.07;4.38;;;;;;;21.82;63.35;94856.97;5067727;28;20053;-75
2021/08/18 07:46:57;;;;;;;11.30;4.95;;;;;;;21.75;64.75;94853.94;5066081;28;20037;-76
2021/08/18 07:49:24;;;;;;;12.70;4.80;;;;;;;21.78;63.86;94853.34;5068006;28;20886;-76
2021/08/18 07:51:51;;;;;;;19.02;6.00;;;;;;;21.93;63.32;94854.84;5066939;28;20517;-76
2021/08/18 07:54:18;;;;;;;11.15;4.30;;;;;;;22.01;64.29;94856.78;5066462;28;20115;-76
2021/08/18 07:56:45;;;;;;;7.45;3.80;;;;;;;22.15;62.73;94852.19;5064898;28;20044;-74
2021/08/18 07:59:11;;;;;;;6.45;4.57;;;;;;;22.24;61.55;94860.22;5062784;28;20459;-74
2021/08/18 08:01:38;;;;;;;7.65;3.90;;;;;;;22.36;63.11;94856.22;5065246;28;20040;-74
2021/08/18 08:04:06;;;;;;;35.47;4.95;;;;;;;22.28;61.98;94847.94;5067346;28;20048;-73
2021/08/18 08:06:32;;;;;;;8.98;4.10;;;;;;;22.45;61.34;94852.50;5066737;28;20045;-74
2021/08/18 08:08:59;;;;;;;7.65;4.53;;;;;;;22.61;60.54;94852.91;5066921;28;20057;-74
2021/08/18 08:11:26;;;;;;;10.30;5.20;;;;;;;22.80;61.36;94842.06;5063719;28;20056;-74
2021/08/18 08:13:53;;;;;;;8.35;4.97;;;;;;;23.02;59.79;94849.13;5061051;28;20135;-73
2021/08/18 08:16:20;;;;;;;12.02;5.45;;;;;;;23.11;59.77;94835.13;5059497;28;20063;-74
2021/08/18 08:18:47;;;;;;;7.63;4.28;;;;;;;23.13;59.57;94843.56;5063071;28;21066;-72
2021/08/18 08:21:14;;;;;;;13.23;5.90;;;;;;;23.01;59.32;94844.94;5059346;28;20044;-73
2021/08/18 08:23:42;;;;;;;10.57;4.28;;;;;;;22.90;59.93;94844.44;5063042;28;20067;-74
2021/08/18 08:26:09;;;;;;;7.20;4.82;;;;;;;23.12;61.10;94850.75;5063706;28;20040;-74
2021/08/18 08:28:35;;;;;;;10.88;5.30;;;;;;;23.21;59.81;94838.28;5062446;28;20067;-74
2021/08/18 08:31:02;;;;;;;10.90;4.88;;;;;;;23.32;58.29;94854.69;5064375;28;20094;-74
2021/08/18 08:33:29;;;;;;;13.10;5.72;;;;;;;23.36;59.75;94845.00;5061930;28;20091;-74
2021/08/18 08:35:56;;;;;;;15.18;6.80;;;;;;;23.42;57.70;94833.09;5064293;28;20814;-74
2021/08/18 08:38:23;;;;;;;8.00;4.45;;;;;;;23.33;58.14;94834.22;5063548;28;20055;-74
2021/08/18 08:40:50;;;;;;;6.90;4.13;;;;;;;23.37;59.33;94830.63;5064748;28;20048;-75
2021/08/18 08:43:19;;;;;;;7.63;5.30;;;;;;;23.48;59.42;94820.47;5061861;28;20440;-74
2021/08/18 08:45:47;;;;;;;10.05;5.00;;;;;;;23.69;57.86;94831.22;5059052;28;20481;-73
2021/08/18 08:48:18;;;;;;;9.95;5.25;;;;;;;23.76;58.19;94842.19;5041582;28;20057;-73
2021/08/18 08:50:48;;;;;;;11.95;5.90;;;;;;;24.04;59.54;94836.56;5062810;28;20048;-73
2021/08/18 08:53:14;;;;;;;8.75;5.10;;;;;;;24.36;56.73;94829.09;5061237;28;20056;-73
2021/08/18 08:55:43;;;;;;;10.18;4.55;;;;;;;24.66;56.72;94834.50;5062021;28;20441;-74
2021/08/18 08:58:10;;;;;;;8.55;4.95;;;;;;;24.67;55.79;94820.88;5060209;28;20085;-74
2021/08/18 09:00:37;;;;;;;10.43;5.07;;;;;;;24.84;53.49;94825.31;5061127;28;20036;-74
2021/08/18 09:03:10;;;;;;;10.45;5.82;;;;;;;24.98;53.08;94825.88;5059912;28;20051;-74
2021/08/18 09:05:38;;;;;;;11.15;5.63;;;;;;;25.07;54.06;94827.72;5063215;28;20093;-74
2021/08/18 09:08:10;;;;;;;11.45;6.13;;;;;;;25.23;53.93;94820.72;5062909;28;20076;-73
2021/08/18 09:10:37;;;;;;;14.02;5.57;;;;;;;25.45;53.62;94816.19;5061199;28;20420;-74
2021/08/18 09:13:15;;;;;;;10.65;6.00;;;;;;;25.52;51.75;94817.22;5058534;28;20047;-73
2021/08/18 09:15:43;;;;;;;11.98;5.78;;;;;;;25.66;52.66;94822.28;5061492;28;20049;-73
2021/08/18 09:18:10;;;;;;;8.30;5.20;;;;;;;25.47;50.33;94812.06;5061135;28;20186;-74
2021/08/18 09:20:39;;;;;;;13.18;6.72;;;;;;;25.28;52.17;94812.56;5063932;28;20398;-74
2021/08/18 09:23:12;;;;;;;9.63;5.88;;;;;;;25.17;53.30;94800.66;5062472;28;20068;-72
2021/08/18 09:25:39;;;;;;;14.05;6.63;;;;;;;25.33;52.57;94804.34;5062819;28;20048;-73
2021/08/18 09:28:06;;;;;;;10.02;6.20;;;;;;;25.36;52.54;94798.38;5062941;28;20036;-73
2021/08/18 09:30:38;;;;;;;15.15;5.93;;;;;;;25.32;51.88;94794.78;5063401;28;20166;-74
2021/08/18 09:33:14;;;;;;;17.05;6.20;;;;;;;25.07;51.33;94803.72;5059691;28;20678;-74
2021/08/18 09:35:41;;;;;;;9.85;5.82;;;;;;;25.44;51.16;94798.63;5063547;28;20413;-72
2021/08/18 09:38:12;;;;;;;13.35;6.03;;;;;;;25.74;50.17;94802.75;5062120;28;20051;-75
2021/08/18 09:40:44;;;;;;;11.45;6.07;;;;;;;25.97;49.25;94794.41;5064601;28;20533;-74
2021/08/18 09:43:16;;;;;;;12.10;5.50;;;;;;;26.28;49.97;94793.91;5067498;28;20036;-75
2021/08/18 09:45:52;;;;;;;9.13;6.03;;;;;;;26.19;48.38;94800.47;5066334;28;20497;-74
2021/08/18 09:48:20;;;;;;;10.52;5.93;;;;;;;26.06;49.58;94794.31;5065205;28;20044;-74
2021/08/18 09:50:51;;;;;;;13.63;5.93;;;;;;;25.73;49.41;94785.19;5063322;28;20040;-74
2021/08/18 09:53:26;;;;;;;11.50;6.47;;;;;;;25.96;50.19;94787.50;5064060;28;20040;-74
2021/08/18 09:56:07;;;;;;;10.82;6.32;;;;;;;26.10;50.29;94793.31;5064032;28;20067;-74
2021/08/18 09:58:36;;;;;;;10.30;6.43;;;;;;;26.22;48.88;94789.13;5045085;28;20032;-75
2021/08/18 10:01:11;;;;;;;9.40;6.68;;;;;;;26.29;48.96;94792.03;5064315;28;20064;-74
2021/08/18 10:03:39;;;;;;;13.18;6.53;;;;;;;26.69;48.13;94788.75;5064771;28;20075;-74
2021/08/18 10:06:09;;;;;;;10.10;5.95;;;;;;;27.02;46.83;94782.47;5065411;28;20071;-75
2021/08/18 10:08:37;;;;;;;9.18;6.40;;;;;;;27.33;45.82;94781.84;5065440;28;20044;-73
2021/08/18 10:11:05;;;;;;;15.45;6.72;;;;;;;27.52;44.57;94783.91;5065478;28;20048;-74
2021/08/18 10:13:33;;;;;;;12.57;6.43;;;;;;;27.59;44.91;94784.13;5047424;28;20052;-73
2021/08/18 10:16:00;;;;;;;18.23;7.35;;;;;;;27.61;44.65;94771.16;5065553;28;20048;-74
2021/08/18 10:18:31;;;;;;;15.38;6.95;;;;;;;27.93;44.39;94781.97;5065531;28;20032;-74
2021/08/18 10:21:00;;;;;;;12.95;6.50;;;;;;;28.20;43.81;94777.69;5064068;28;20040;-73
2021/08/18 10:23:59;;;;;;;11.15;6.28;;;;;;;28.29;42.79;94777.53;5065466;28;20044;-74
2021/08/18 10:26:35;;;;;;;11.95;6.65;;;;;;;28.37;41.38;94768.53;5065581;28;20037;-73
2021/08/18 10:29:30;;;;;;;8.48;5.95;;;;;;;28.37;41.17;94776.56;5047414;28;20068;-74
2021/08/18 10:31:58;;;;;;;11.40;6.68;;;;;;;28.65;42.11;94767.69;5064384;28;20046;-74
2021/08/18 10:34:51;;;;;;;14.32;6.05;;;;;;;28.93;42.85;94766.75;5065119;28;20052;-73
2021/08/18 10:37:21;;;;;;;12.23;6.78;;;;;;;29.01;40.99;94763.13;5062388;28;20053;-73
2021/08/18 10:39:54;;;;;;;19.98;7.95;;;;;;;29.30;38.99;94761.06;5064107;28;20053;-73
2021/08/18 10:42:42;;;;;;;8.82;5.80;;;;;;;29.09;39.38;94748.72;5061259;28;20501;-73
2021/08/18 10:45:18;;;;;;;8.52;5.93;;;;;;;29.36;38.36;94747.00;5062654;28;20049;-73
2021/08/18 10:47:45;;;;;;;12.00;6.43;;;;;;;29.49;37.96;94744.16;5054826;28;20032;-72
2021/08/18 10:50:12;;;;;;;11.18;6.72;;;;;;;29.46;38.56;94737.63;5061145;28;20128;-72
2021/08/18 10:52:42;;;;;;;13.73;5.88;;;;;;;29.92;39.08;94745.75;5046588;28;20660;-73
2021/08/18 10:55:10;;;;;;;12.75;6.47;;;;;;;30.18;40.29;94738.91;5065626;28;20594;-72
2021/08/18 10:57:37;;;;;;;12.02;5.93;;;;;;;30.67;37.31;94746.22;5066215;28;20051;-73
2021/08/18 11:00:10;;;;;;;13.98;7.22;;;;;;;30.81;37.77;94744.88;5067110;28;20098;-73
2021/08/18 11:02:55;;;;;;;9.82;7.38;;;;;;;31.10;35.76;94739.91;5065572;28;20048;-72
2021/08/18 11:05:39;;;;;;;12.55;6.05;;;;;;;31.33;35.72;94735.22;5064581;28;20137;-73
2021/08/18 11:08:25;;;;;;;12.45;6.65;;;;;;;31.57;34.97;94743.97;5064209;28;20040;-73
2021/08/18 11:10:56;;;;;;;9.45;6.93;;;;;;;31.99;34.44;94729.38;5063795;28;20497;-73
2021/08/18 11:14:09;;;;;;;16.00;7.38;;;;;;;32.13;35.20;94734.91;5065800;28;20437;-73
2021/08/18 11:16:35;;;;;;;13.10;7.15;;;;;;;31.93;33.21;94722.78;5062198;28;20076;-73
2021/08/18 11:19:11;;;;;;;10.52;7.28;;;;;;;31.92;33.96;94730.06;5066354;28;20371;-72
2021/08/18 11:21:40;;;;;;;13.10;6.65;;;;;;;32.12;33.72;94722.59;5066173;28;20057;-73
2021/08/18 11:24:10;;;;;;;8.32;6.75;;;;;;;31.99;33.87;94724.00;5066234;28;20044;-73
2021/08/18 11:26:49;;;;;;;15.13;7.65;;;;;;;31.73;34.39;94723.00;5066894;28;20047;-73
2021/08/18 11:29:20;;;;;;;11.52;7.57;;;;;;;31.94;33.56;94716.25;5066233;28;20044;-73
2021/08/18 11:31:53;;;;;;;10.68;6.80;;;;;;;31.61;34.54;94720.56;5065506;28;20053;-73
2021/08/18 11:34:28;;;;;;;10.98;6.45;;;;;;;31.71;33.66;94725.28;5066474;28;20181;-73